sensor_id;sensor_type;location;lat;lon;timestamp;pressure;altitude;pressure_sealevel;temperature;humidity
67377;BME280;54261;46.086;6.588;2024-01-11T05:20:31;92854.28;;;-5.91;100.00
67377;BME280;54261;46.086;6.588;2024-01-11T05:25:33;92851.16;;;-2.42;93.49
67377;BME280;54261;46.086;6.588;2024-01-11T05:30:35;92862.16;;;-4.49;76.69
67377;BME280;54261;46.086;6.588;2024-01-11T05:35:37;92866.16;;;-2.43;76.80
67377;BME280;54261;46.086;6.588;2024-01-11T05:40:39;92864.09;;;-3.75;72.85
67377;BME280;54261;46.086;6.588;2024-01-11T05:45:41;92864.59;;;-1.96;68.79
67377;BME280;54261;46.086;6.588;2024-01-11T05:50:49;92867.03;;;-0.38;67.99
67377;BME280;54261;46.086;6.588;2024-01-11T05:55:50;92881.81;;;-0.54;63.74
67377;BME280;54261;46.086;6.588;2024-01-11T06:00:55;92881.88;;;-1.88;58.26
67377;BME280;54261;46.086;6.588;2024-01-11T06:05:58;92882.97;;;-1.60;64.19
67377;BME280;54261;46.086;6.588;2024-01-11T06:11:00;92887.59;;;-0.40;62.02
67377;BME280;54261;46.086;6.588;2024-01-11T06:16:02;92891.78;;;0.47;60.63
67377;BME280;54261;46.086;6.588;2024-01-11T06:21:04;92891.34;;;0.55;56.99
67377;BME280;54261;46.086;6.588;2024-01-11T06:26:07;92897.06;;;-2.14;57.25
67377;BME280;54261;46.086;6.588;2024-01-11T06:31:09;92896.06;;;-0.20;58.24
67377;BME280;54261;46.086;6.588;2024-01-11T06:36:12;92900.28;;;0.32;54.69
67377;BME280;54261;46.086;6.588;2024-01-11T06:41:14;92897.28;;;-0.28;52.97
67377;BME280;54261;46.086;6.588;2024-01-11T06:46:20;92885.34;;;-1.35;56.05
67377;BME280;54261;46.086;6.588;2024-01-11T06:51:23;92897.06;;;0.30;55.19
67377;BME280;54261;46.086;6.588;2024-01-11T06:56:24;92895.44;;;0.85;53.96
67377;BME280;54261;46.086;6.588;2024-01-11T07:01:27;92895.50;;;0.91;49.97
67377;BME280;54261;46.086;6.588;2024-01-11T07:06:28;92886.84;;;0.73;52.86
67377;BME280;54261;46.086;6.588;2024-01-11T07:11:49;92895.06;;;0.99;49.12
67377;BME280;54261;46.086;6.588;2024-01-11T07:17:10;92895.53;;;1.18;50.95
67377;BME280;54261;46.086;6.588;2024-01-11T07:22:14;92894.91;;;-0.59;52.04
67377;BME280;54261;46.086;6.588;2024-01-11T07:27:16;92888.13;;;0.14;49.21
67377;BME280;54261;46.086;6.588;2024-01-11T07:32:18;92894.44;;;0.69;49.13
67377;BME280;54261;46.086;6.588;2024-01-11T07:37:20;92903.06;;;1.04;48.34
67377;BME280;54261;46.086;6.588;2024-01-11T07:42:22;92902.38;;;1.41;48.28
67377;BME280;54261;46.086;6.588;2024-01-11T07:47:24;92859.41;;;1.29;47.66
67377;BME280;54261;46.086;6.588;2024-01-11T07:52:45;92902.44;;;1.74;47.51
67377;BME280;54261;46.086;6.588;2024-01-11T07:57:47;92917.69;;;1.67;45.93
67377;BME280;54261;46.086;6.588;2024-01-11T08:02:49;92926.47;;;1.45;46.21
67377;BME280;54261;46.086;6.588;2024-01-11T08:07:51;92916.59;;;0.46;45.77
67377;BME280;54261;46.086;6.588;2024-01-11T16:36:24;93020.13;;;-7.65;96.54
67377;BME280;54261;46.086;6.588;2024-01-11T16:41:26;93037.91;;;-4.44;82.09
67377;BME280;54261;46.086;6.588;2024-01-11T16:46:28;93045.69;;;-4.30;69.99
67377;BME280;54261;46.086;6.588;2024-01-11T16:51:31;93043.13;;;-3.54;71.77
67377;BME280;54261;46.086;6.588;2024-01-11T16:56:33;93053.44;;;-3.78;69.54
67377;BME280;54261;46.086;6.588;2024-01-11T17:01:35;93050.81;;;-4.88;65.99
67377;BME280;54261;46.086;6.588;2024-01-11T17:06:37;93045.81;;;-4.12;64.72
67377;BME280;54261;46.086;6.588;2024-01-11T17:11:39;93062.06;;;-3.27;66.46
67377;BME280;54261;46.086;6.588;2024-01-11T17:16:43;93036.13;;;-3.16;60.67
67377;BME280;54261;46.086;6.588;2024-01-11T17:22:03;93050.47;;;-2.63;66.58
67377;BME280;54261;46.086;6.588;2024-01-11T17:27:05;93045.13;;;-3.75;60.28
67377;BME280;54261;46.086;6.588;2024-01-11T17:32:10;93041.03;;;-5.13;65.97
67377;BME280;54261;46.086;6.588;2024-01-11T17:37:30;93036.75;;;-2.84;66.46
67377;BME280;54261;46.086;6.588;2024-01-11T17:42:32;93030.88;;;-2.18;58.90
67377;BME280;54261;46.086;6.588;2024-01-11T17:47:34;93045.75;;;-3.80;60.43
67377;BME280;54261;46.086;6.588;2024-01-11T17:52:55;93047.84;;;-4.53;62.09
67377;BME280;54261;46.086;6.588;2024-01-11T17:57:56;93047.66;;;-4.51;64.00
67377;BME280;54261;46.086;6.588;2024-01-11T18:02:59;93044.75;;;-4.04;62.60
67377;BME280;54261;46.086;6.588;2024-01-11T18:08:01;93054.38;;;-3.98;61.49
67377;BME280;54261;46.086;6.588;2024-01-11T18:13:03;93061.44;;;-2.05;61.16
67377;BME280;54261;46.086;6.588;2024-01-11T18:18:05;93051.31;;;-0.58;58.73
67377;BME280;54261;46.086;6.588;2024-01-11T18:23:09;93059.06;;;-1.40;52.93
67377;BME280;54261;46.086;6.588;2024-01-11T18:28:11;93061.28;;;-2.53;55.79
67377;BME280;54261;46.086;6.588;2024-01-11T18:33:14;93066.31;;;-2.21;56.19
67377;BME280;54261;46.086;6.588;2024-01-11T18:38:16;93078.38;;;-5.71;64.81
67377;BME280;54261;46.086;6.588;2024-01-11T18:43:20;93092.22;;;-5.84;70.00
67377;BME280;54261;46.086;6.588;2024-01-11T18:48:22;93083.09;;;-3.78;62.46
67377;BME280;54261;46.086;6.588;2024-01-11T18:53:24;93076.16;;;-3.02;57.39
67377;BME280;54261;46.086;6.588;2024-01-11T18:58:27;93051.09;;;-2.18;59.57
67377;BME280;54261;46.086;6.588;2024-01-11T19:03:31;93100.09;;;-3.87;61.01
67377;BME280;54261;46.086;6.588;2024-01-11T19:08:33;93103.84;;;-1.95;57.57
67377;BME280;54261;46.086;6.588;2024-01-11T19:13:35;93113.69;;;-3.39;57.95
67377;BME280;54261;46.086;6.588;2024-01-11T19:18:37;93114.31;;;-4.40;61.78
67377;BME280;54261;46.086;6.588;2024-01-11T19:23:58;93116.84;;;-2.68;60.25
67377;BME280;54261;46.086;6.588;2024-01-11T19:29:01;93122.72;;;-1.55;57.13
67377;BME280;54261;46.086;6.588;2024-01-11T19:34:03;93111.38;;;-0.60;55.36
67377;BME280;54261;46.086;6.588;2024-01-11T19:39:06;93114.38;;;0.13;53.98
67377;BME280;54261;46.086;6.588;2024-01-11T19:44:08;93120.25;;;0.61;53.04
67377;BME280;54261;46.086;6.588;2024-01-11T19:49:10;93127.53;;;-0.04;51.18
67377;BME280;54261;46.086;6.588;2024-01-11T19:54:13;93116.53;;;-0.42;52.53
67377;BME280;54261;46.086;6.588;2024-01-11T19:59:15;93120.03;;;-0.89;53.03
67377;BME280;54261;46.086;6.588;2024-01-11T20:04:18;93131.31;;;-0.41;51.20
67377;BME280;54261;46.086;6.588;2024-01-11T20:09:22;93132.44;;;0.63;50.60
67377;BME280;54261;46.086;6.588;2024-01-11T20:14:25;93133.00;;;0.99;49.97
67377;BME280;54261;46.086;6.588;2024-01-11T20:19:29;93146.06;;;0.13;49.34
67377;BME280;54261;46.086;6.588;2024-01-11T20:24:49;93142.25;;;-0.61;50.68
67377;BME280;54261;46.086;6.588;2024-01-11T20:29:53;93137.47;;;0.35;48.97
67377;BME280;54261;46.086;6.588;2024-01-11T20:34:55;93119.53;;;-0.09;47.09
67377;BME280;54261;46.086;6.588;2024-01-11T20:39:57;93139.78;;;0.60;48.48
67377;BME280;54261;46.086;6.588;2024-01-11T20:44:59;93138.44;;;0.92;46.85
67377;BME280;54261;46.086;6.588;2024-01-11T20:50:01;93140.94;;;0.82;47.12
67377;BME280;54261;46.086;6.588;2024-01-11T20:55:03;93150.03;;;0.57;46.85
67377;BME280;54261;46.086;6.588;2024-01-11T21:00:09;93159.91;;;0.50;45.89
67377;BME280;54261;46.086;6.588;2024-01-11T21:05:11;93154.31;;;-1.43;49.60
67377;BME280;54261;46.086;6.588;2024-01-11T21:10:13;93153.91;;;-4.10;57.30
67377;BME280;54261;46.086;6.588;2024-01-11T21:15:15;93168.72;;;-3.58;56.79
67377;BME280;54261;46.086;6.588;2024-01-11T21:20:36;93160.72;;;-2.12;52.38
67377;BME280;54261;46.086;6.588;2024-01-11T21:25:39;93164.03;;;-1.01;51.83
67377;BME280;54261;46.086;6.588;2024-01-11T21:30:41;93158.56;;;-0.23;49.27
67377;BME280;54261;46.086;6.588;2024-01-11T21:35:43;93141.44;;;-0.97;51.45
67377;BME280;54261;46.086;6.588;2024-01-11T21:40:45;93161.72;;;-0.86;48.28
67377;BME280;54261;46.086;6.588;2024-01-11T21:45:47;93167.59;;;-4.01;57.47
67377;BME280;54261;46.086;6.588;2024-01-11T21:50:49;93162.91;;;-3.09;57.65
67377;BME280;54261;46.086;6.588;2024-01-11T21:55:51;93158.00;;;-1.75;51.76
67377;BME280;54261;46.086;6.588;2024-01-11T22:00:53;93165.69;;;-3.87;56.72
67377;BME280;54261;46.086;6.588;2024-01-11T22:05:57;93148.16;;;-2.66;54.45
